Terminal Aerodrome Forecast
Issued by NWS Jackson, MS

Home | Current Version | Previous Version | Text Only | Print | Product List | Glossary On
Versions: 1 2 3 4 5 6 7 8 9 10 11 12 13 14 15 16 17 18
000
FTUS44 KJAN 190233 AAA
TAFMEI
TAF AMD
KMEI 190233Z 1903/1924 00000KT 6SM -TSRA BR BKN015CB OVC100
     FM190600 17008KT P6SM -RA BKN008 OVC100
     FM190900 20005KT 4SM BR OVC003
     FM191500 23006KT 6SM BR OVC007=

USA.gov is the U.S. government's official web portal to all federal, state and local government web resources and services.